Terminal Aerodrome Forecast
Issued by NWS

Home | Current Version | Previous Version | Graphics & Text | Print | Product List | Glossary On
Versions: 1 2 3 4 5 6 7 8 9 10 11 12 13 14 15 16 17 18 19 20 21 22 23 24 25 26 27 28 29 30 31 32 33 34 35 36 37 38 39 40 41 42
000
FTUS45 KBOU 271132
TAFBJC
TAF
KBJC 271132Z 2712/2812 02006KT P6SM -DZ BKN004 OVC008
      TEMPO 2712/2714 2SM -DZ BR OVC003
     FM271400 01006KT 5SM -SHRA BR SCT004 OVC008
      TEMPO 2714/2717 2SM RA OVC003
     FM271900 36007KT P6SM SCT012 OVC020
     FM280000 VRB06KT P6SM SCT025 BKN040
     FM280800 VRB06KT P6SM SCT040=

USA.gov is the U.S. government's official web portal to all federal, state and local government web resources and services.